createdAt,value
2023-03-02T00:01:10.225Z,8.27
2023-03-02T00:04:16.638Z,9.88
2023-03-02T00:07:32.054Z,10.95
2023-03-02T00:10:34.356Z,8.25
2023-03-02T00:13:37.575Z,11.77
2023-03-02T00:16:40.343Z,12.82
2023-03-02T00:19:42.679Z,8.40
2023-03-02T00:22:45.835Z,17.85
2023-03-02T00:25:48.226Z,10.20
2023-03-02T00:28:50.475Z,15.13
2023-03-02T00:31:52.732Z,7.05
2023-03-02T00:34:55.000Z,7.85
2023-03-02T00:37:57.180Z,10.90
2023-03-02T00:40:59.491Z,13.13
2023-03-02T00:44:01.655Z,12.95
2023-03-02T00:47:03.866Z,11.80
2023-03-02T00:50:06.764Z,9.43
2023-03-02T00:53:11.830Z,7.47
2023-03-02T00:56:14.147Z,11.63
2023-03-02T00:59:28.267Z,14.95
2023-03-02T01:02:30.478Z,12.52
2023-03-02T01:05:36.543Z,6.43
2023-03-02T01:08:38.724Z,10.90
2023-03-02T01:11:40.950Z,10.40
2023-03-02T01:14:47.115Z,6.12
2023-03-02T01:17:49.415Z,10.57
2023-03-02T01:21:00.921Z,8.50
2023-03-02T01:27:05.073Z,8.60
2023-03-02T01:30:07.991Z,10.50
2023-03-02T01:33:10.315Z,6.95
2023-03-02T01:36:12.562Z,7.72
2023-03-02T01:39:17.657Z,8.48
2023-03-02T01:42:19.904Z,9.70
2023-03-02T01:45:57.518Z,7.25
2023-03-02T01:49:06.524Z,7.32
2023-03-02T01:52:10.562Z,10.57
2023-03-02T01:55:15.353Z,7.97
2023-03-02T01:58:17.896Z,8.15
2023-03-02T02:01:20.364Z,5.40
2023-03-02T02:04:23.749Z,11.70
2023-03-02T02:07:26.001Z,7.55
2023-03-02T02:10:28.491Z,6.55
2023-03-02T02:13:30.689Z,4.32
2023-03-02T02:16:34.504Z,4.40
2023-03-02T02:19:43.073Z,12.37
2023-03-02T02:23:13.194Z,7.47
2023-03-02T02:26:23.587Z,9.70
2023-03-02T02:29:34.745Z,8.20
2023-03-02T02:32:39.246Z,7.90
2023-03-02T02:35:41.724Z,8.57
2023-03-02T02:38:47.962Z,7.72
2023-03-02T02:41:52.034Z,9.27
2023-03-02T02:45:01.266Z,5.60
2023-03-02T02:48:03.546Z,8.70
2023-03-02T02:51:08.896Z,9.48
2023-03-02T02:54:15.228Z,6.28
2023-03-02T02:57:18.730Z,7.40
2023-03-02T03:00:22.594Z,9.27
2023-03-02T03:03:31.382Z,11.12
2023-03-02T03:06:38.546Z,6.20
2023-03-02T03:09:40.836Z,10.30
2023-03-02T03:12:43.449Z,8.18
2023-03-02T03:15:45.695Z,7.18
2023-03-02T03:18:48.427Z,8.70
2023-03-02T03:21:53.359Z,10.02
2023-03-02T03:24:55.530Z,9.52
2023-03-02T03:27:57.690Z,7.80
2023-03-02T03:30:59.977Z,5.78
2023-03-02T03:34:02.220Z,5.85
2023-03-02T03:37:05.142Z,3.60
2023-03-02T03:40:09.815Z,7.50
2023-03-02T03:43:13.806Z,5.95
2023-03-02T03:46:16.746Z,5.85
2023-03-02T03:49:19.036Z,3.58
2023-03-02T03:52:30.430Z,7.05
2023-03-02T03:55:32.664Z,6.22
2023-03-02T03:58:34.941Z,10.15
2023-03-02T04:01:51.416Z,5.40
2023-03-02T04:04:53.732Z,6.32
2023-03-02T04:07:55.918Z,9.85
2023-03-02T04:10:58.091Z,6.65
2023-03-02T04:14:00.462Z,6.53
2023-03-02T04:17:05.448Z,5.12
2023-03-02T04:20:09.564Z,5.97
2023-03-02T04:23:12.127Z,4.45
2023-03-02T04:26:14.398Z,7.55
2023-03-02T04:29:17.902Z,5.95
2023-03-02T04:32:20.111Z,11.55
2023-03-02T04:35:22.394Z,6.95
2023-03-02T04:38:24.696Z,6.60
2023-03-02T04:41:26.854Z,5.07
2023-03-02T04:44:29.059Z,7.70
2023-03-02T04:47:31.208Z,6.40
2023-03-02T04:50:33.990Z,7.45
2023-03-02T04:53:36.150Z,8.10
2023-03-02T04:56:38.329Z,7.20
2023-03-02T04:59:40.665Z,7.03
2023-03-02T05:02:43.163Z,7.97
2023-03-02T05:05:45.425Z,7.93
2023-03-02T05:08:48.258Z,9.35
2023-03-02T05:11:50.449Z,5.22
2023-03-02T05:14:52.649Z,3.40
2023-03-02T05:17:55.438Z,6.28
2023-03-02T05:20:58.104Z,5.80
2023-03-02T05:24:00.481Z,4.93
2023-03-02T05:27:02.667Z,8.82
2023-03-02T05:30:06.241Z,7.70
2023-03-02T05:33:08.740Z,6.80
2023-03-02T05:36:11.081Z,5.55
2023-03-02T05:39:13.669Z,9.82
2023-03-02T05:42:15.815Z,19.67
2023-03-02T05:45:30.436Z,25.15
2023-03-02T05:48:32.643Z,12.00
2023-03-02T05:51:34.832Z,29.70
2023-03-02T05:54:36.942Z,26.77
2023-03-02T05:57:39.479Z,12.57
2023-03-02T06:00:41.740Z,9.07
2023-03-02T06:03:43.942Z,7.40
2023-03-02T06:06:48.863Z,10.05
2023-03-02T06:09:51.204Z,9.98
2023-03-02T06:12:53.414Z,8.20
2023-03-02T06:15:55.917Z,10.10
2023-03-02T06:18:58.124Z,9.18
2023-03-02T06:22:00.303Z,7.35
2023-03-02T06:25:02.505Z,6.72
2023-03-02T06:28:04.788Z,10.35
2023-03-02T06:31:06.962Z,6.97
2023-03-02T06:34:09.108Z,8.25
2023-03-02T06:37:11.301Z,6.05
2023-03-02T06:40:14.324Z,5.78
2023-03-02T06:43:17.176Z,8.68
2023-03-02T06:46:19.396Z,9.02
2023-03-02T06:49:21.753Z,8.88
2023-03-02T06:52:24.022Z,6.05
2023-03-02T06:55:26.249Z,7.53
2023-03-02T06:58:28.400Z,13.07
2023-03-02T07:01:35.683Z,12.77
2023-03-02T07:04:38.162Z,8.35
2023-03-02T07:07:40.404Z,25.95
2023-03-02T07:10:42.586Z,6.25
2023-03-02T07:13:44.844Z,6.25
2023-03-02T07:16:47.084Z,5.15
2023-03-02T07:19:49.355Z,6.75
2023-03-02T07:22:51.519Z,5.03
2023-03-02T07:25:53.672Z,7.60
2023-03-02T07:28:55.931Z,9.00
2023-03-02T07:32:01.085Z,4.07
2023-03-02T07:35:03.363Z,6.28
2023-03-02T07:38:05.751Z,6.62
2023-03-02T07:41:09.362Z,4.90
2023-03-02T07:44:11.930Z,5.68
2023-03-02T07:47:14.332Z,4.35
2023-03-02T07:50:16.863Z,5.90
2023-03-02T07:53:19.097Z,8.63
2023-03-02T07:56:21.748Z,6.28
2023-03-02T07:59:24.285Z,6.50
2023-03-02T08:02:26.597Z,9.90
2023-03-02T08:05:28.796Z,4.72
2023-03-02T08:08:30.974Z,4.55
2023-03-02T08:11:33.377Z,8.90
2023-03-02T08:14:35.955Z,7.40
2023-03-02T08:17:38.148Z,5.53
2023-03-02T08:20:40.384Z,5.00
2023-03-02T08:23:43.028Z,4.28
2023-03-02T08:26:45.226Z,6.30
2023-03-02T08:29:47.369Z,5.25
2023-03-02T08:32:49.603Z,4.57
2023-03-02T08:36:05.000Z,2.50
2023-03-02T08:39:07.302Z,2.87
2023-03-02T08:42:09.539Z,1.85
2023-03-02T08:45:12.284Z,2.90
2023-03-02T08:48:14.474Z,6.40
2023-03-02T08:51:19.532Z,5.50
2023-03-02T08:54:22.024Z,7.80
2023-03-02T08:57:24.253Z,3.40
2023-03-02T09:00:26.545Z,2.55
2023-03-02T09:03:28.775Z,3.10
2023-03-02T09:06:32.427Z,5.37
2023-03-02T09:09:34.648Z,2.62
2023-03-02T09:12:36.842Z,5.22
2023-03-02T09:15:39.017Z,3.28
2023-03-02T09:18:41.232Z,2.97
2023-03-02T09:21:43.414Z,3.37
2023-03-02T09:24:45.661Z,6.65
2023-03-02T09:27:47.870Z,4.00
2023-03-02T09:30:56.845Z,5.85
2023-03-02T09:33:59.147Z,4.15
2023-03-02T09:37:01.313Z,3.67
2023-03-02T09:40:03.702Z,2.75
2023-03-02T09:43:33.668Z,4.50
2023-03-02T09:47:00.979Z,4.72
2023-03-02T09:50:34.308Z,5.07
2023-03-02T09:53:36.490Z,6.53
2023-03-02T09:56:47.758Z,4.45
2023-03-02T10:00:18.109Z,3.85
2023-03-02T10:03:31.101Z,6.62
2023-03-02T10:06:33.658Z,6.18
2023-03-02T10:09:36.084Z,4.43
2023-03-02T10:12:50.370Z,5.10
2023-03-02T10:15:58.761Z,4.20
2023-03-02T10:19:07.086Z,5.85
2023-03-02T10:22:20.264Z,5.90
2023-03-02T10:25:42.222Z,9.60
2023-03-02T10:28:49.846Z,5.00
2023-03-02T10:32:10.225Z,4.75
2023-03-02T10:35:17.859Z,7.40
2023-03-02T10:38:22.911Z,5.28
2023-03-02T10:41:33.158Z,7.03
2023-03-02T10:44:39.308Z,4.87
2023-03-02T10:47:41.766Z,9.20
2023-03-02T10:50:44.584Z,6.05
2023-03-02T10:53:46.746Z,6.78
2023-03-02T10:56:51.971Z,5.90
2023-03-02T11:00:00.307Z,7.40
2023-03-02T11:03:06.867Z,5.10
2023-03-02T11:06:28.313Z,4.68
2023-03-02T11:09:30.531Z,6.68
2023-03-02T11:12:35.585Z,4.18
2023-03-02T11:15:44.996Z,5.90
2023-03-02T11:18:52.059Z,5.57
2023-03-02T11:22:21.716Z,5.18
2023-03-02T11:25:28.798Z,7.62
2023-03-02T11:28:50.053Z,5.70
2023-03-02T11:32:24.510Z,5.43
2023-03-02T11:35:43.319Z,4.85
2023-03-02T11:38:58.678Z,6.82
2023-03-02T11:42:00.871Z,6.03
2023-03-02T11:45:27.385Z,5.72
2023-03-02T11:48:36.486Z,4.95
2023-03-02T11:51:50.073Z,8.10
2023-03-02T11:55:22.387Z,6.03
2023-03-02T11:58:27.167Z,7.20
2023-03-02T12:01:29.766Z,5.25
2023-03-02T12:04:34.988Z,12.27
2023-03-02T12:07:37.140Z,6.25
2023-03-02T12:10:42.972Z,5.45
2023-03-02T12:13:45.068Z,4.68
2023-03-02T12:16:47.249Z,4.28
2023-03-02T12:19:51.716Z,7.85
2023-03-02T12:22:54.171Z,5.43
2023-03-02T12:26:09.522Z,5.78
2023-03-02T12:29:11.647Z,4.47
2023-03-02T12:32:26.540Z,7.43
2023-03-02T12:35:31.633Z,5.47
2023-03-02T12:38:37.052Z,3.90
2023-03-02T12:41:39.224Z,8.55
2023-03-02T12:44:52.264Z,4.60
2023-03-02T12:48:22.911Z,5.72
2023-03-02T12:51:30.679Z,4.93
2023-03-02T12:54:34.765Z,5.72
2023-03-02T12:57:48.664Z,6.40
2023-03-02T13:00:59.892Z,4.82
2023-03-02T13:04:02.137Z,4.25
2023-03-02T13:07:05.191Z,4.03
2023-03-02T13:10:30.865Z,8.20
2023-03-02T13:13:33.094Z,6.55
2023-03-02T13:16:36.912Z,6.12
2023-03-02T13:19:39.450Z,4.18
2023-03-02T13:22:41.872Z,5.82
2023-03-02T13:25:50.991Z,5.65
2023-03-02T13:29:23.122Z,3.75
2023-03-02T13:32:27.466Z,4.03
2023-03-02T13:35:32.076Z,7.75
2023-03-02T13:38:37.080Z,4.40
2023-03-02T13:41:40.711Z,7.80
2023-03-02T13:44:43.082Z,7.03
2023-03-02T13:47:45.313Z,3.62
2023-03-02T13:51:17.090Z,2.78
2023-03-02T13:54:26.466Z,5.05
2023-03-02T13:57:30.912Z,4.60
2023-03-02T14:00:34.472Z,7.70
2023-03-02T14:03:36.635Z,5.53
2023-03-02T14:06:38.834Z,4.87
2023-03-02T14:09:40.976Z,6.00
2023-03-02T14:12:50.609Z,3.80
2023-03-02T14:15:53.687Z,4.12
2023-03-02T14:18:58.669Z,7.10
2023-03-02T14:22:00.886Z,4.10
2023-03-02T14:25:03.232Z,5.78
2023-03-02T14:28:05.442Z,3.40
2023-03-02T14:31:09.197Z,3.20
2023-03-02T14:34:15.921Z,8.68
2023-03-02T14:37:20.409Z,4.72
2023-03-02T14:40:28.652Z,4.28
2023-03-02T14:43:30.848Z,3.83
2023-03-02T14:46:33.086Z,7.15
2023-03-02T14:49:35.398Z,2.95
2023-03-02T14:52:52.001Z,3.03
2023-03-02T14:55:54.178Z,6.35
2023-03-02T14:58:58.348Z,5.60
2023-03-02T15:02:08.221Z,8.10
2023-03-02T15:05:18.828Z,3.37
2023-03-02T15:08:22.981Z,11.27
2023-03-02T15:11:26.566Z,9.48
2023-03-02T15:14:28.732Z,5.12
2023-03-02T15:17:31.370Z,6.18
2023-03-02T15:20:33.729Z,7.03
2023-03-02T15:23:35.941Z,5.05
2023-03-02T15:26:42.269Z,6.60
2023-03-02T15:29:45.965Z,4.90
2023-03-02T15:32:48.174Z,4.28
2023-03-02T15:35:55.410Z,5.37
2023-03-02T15:38:57.943Z,5.00
2023-03-02T15:42:01.059Z,7.45
2023-03-02T15:45:04.719Z,4.32
2023-03-02T15:48:06.886Z,4.07
2023-03-02T15:51:10.131Z,3.22
2023-03-02T15:54:12.570Z,3.42
2023-03-02T15:57:15.135Z,3.25
2023-03-02T16:00:18.196Z,5.78
2023-03-02T16:03:22.986Z,4.20
2023-03-02T16:06:25.218Z,6.47
2023-03-02T16:09:28.977Z,6.25
2023-03-02T16:12:31.169Z,6.12
2023-03-02T16:15:40.242Z,5.93
2023-03-02T16:18:42.389Z,8.35
2023-03-02T16:21:44.901Z,5.53
2023-03-02T16:24:49.285Z,9.65
2023-03-02T16:27:53.387Z,15.70
2023-03-02T16:31:03.964Z,13.82
2023-03-02T16:34:08.826Z,20.80
2023-03-02T16:37:11.294Z,11.57
2023-03-02T16:40:14.012Z,6.97
2023-03-02T16:43:16.545Z,7.93
2023-03-02T16:46:19.492Z,5.35
2023-03-02T16:49:21.717Z,5.15
2023-03-02T16:52:23.957Z,7.40
2023-03-02T16:55:26.339Z,19.35
2023-03-02T16:58:28.744Z,9.13
2023-03-02T17:01:31.145Z,7.75
2023-03-02T17:04:36.997Z,9.18
2023-03-02T17:07:39.277Z,9.65
2023-03-02T17:10:41.963Z,18.20
2023-03-02T17:13:44.492Z,43.95
2023-03-02T17:16:46.906Z,29.50
2023-03-02T17:19:49.172Z,41.28
2023-03-02T17:22:51.444Z,32.17
2023-03-02T17:25:54.380Z,37.97
2023-03-02T17:28:56.567Z,35.67
2023-03-02T17:31:59.116Z,31.90
2023-03-02T17:35:01.385Z,26.50
2023-03-02T17:38:04.122Z,33.28
2023-03-02T17:41:07.448Z,29.52
2023-03-02T17:44:09.631Z,26.77
2023-03-02T17:47:14.901Z,24.40
2023-03-02T17:50:17.530Z,12.63
2023-03-02T17:53:20.097Z,15.10
2023-03-02T17:56:24.906Z,11.68
2023-03-02T17:59:27.500Z,18.20
2023-03-02T18:02:29.972Z,13.95
2023-03-02T18:05:32.363Z,12.07
2023-03-02T18:08:34.645Z,12.57
2023-03-02T18:11:37.067Z,18.92
2023-03-02T18:14:39.371Z,15.77
2023-03-02T18:17:41.825Z,25.98
2023-03-02T18:20:44.099Z,17.83
2023-03-02T18:23:47.050Z,32.97
2023-03-02T18:26:49.684Z,31.25
2023-03-02T18:29:52.132Z,55.42
2023-03-02T18:32:54.631Z,85.47
2023-03-02T18:35:57.370Z,69.72
2023-03-02T18:38:59.705Z,55.42
2023-03-02T18:42:02.210Z,49.72
2023-03-02T18:45:05.885Z,38.40
2023-03-02T18:48:08.486Z,49.47
2023-03-02T18:51:10.782Z,38.00
2023-03-02T18:54:13.297Z,43.92
2023-03-02T18:57:15.797Z,33.88
2023-03-02T19:00:21.671Z,62.33
2023-03-02T19:03:24.831Z,60.25
2023-03-02T19:06:27.393Z,76.43
2023-03-02T19:09:30.391Z,84.55
2023-03-02T19:12:32.935Z,68.40
2023-03-02T19:15:37.153Z,41.05
2023-03-02T19:18:39.581Z,35.50
2023-03-02T19:21:42.015Z,25.95
2023-03-02T19:24:46.099Z,133.70
2023-03-02T19:27:48.638Z,235.93
2023-03-02T19:30:51.056Z,61.05
2023-03-02T19:33:54.154Z,54.67
2023-03-02T19:36:56.684Z,22.05
2023-03-02T19:39:59.091Z,26.70
2023-03-02T19:43:01.909Z,16.58
2023-03-02T19:46:05.264Z,21.80
2023-03-02T19:49:07.658Z,74.47
2023-03-02T19:52:10.450Z,48.05
2023-03-02T19:55:14.929Z,49.75
2023-03-02T19:58:19.693Z,41.45
2023-03-02T20:01:24.836Z,51.97
2023-03-02T20:04:27.930Z,53.75
2023-03-02T20:07:30.963Z,41.03
2023-03-02T20:10:37.301Z,82.57
2023-03-02T20:13:39.742Z,60.40
2023-03-02T20:16:42.622Z,32.90
2023-03-02T20:19:46.913Z,16.48
2023-03-02T20:22:49.710Z,32.78
2023-03-02T20:25:52.143Z,36.17
2023-03-02T20:28:55.880Z,25.05
2023-03-02T20:31:58.441Z,22.75
2023-03-02T20:35:00.951Z,21.75
2023-03-02T20:38:06.932Z,27.45
2023-03-02T20:41:11.774Z,23.30
2023-03-02T20:44:14.989Z,19.73
2023-03-02T20:47:17.593Z,24.80
2023-03-02T20:50:23.416Z,18.70
2023-03-02T20:53:26.148Z,15.10
2023-03-02T20:56:28.614Z,21.33
2023-03-02T20:59:31.886Z,16.83
2023-03-02T21:02:34.235Z,18.23
2023-03-02T21:05:40.336Z,21.50
2023-03-02T21:08:43.897Z,15.75
2023-03-02T21:11:47.260Z,16.80
2023-03-02T21:14:50.982Z,16.12
2023-03-02T21:17:54.682Z,16.42
2023-03-02T21:20:57.261Z,18.45
2023-03-02T21:23:59.807Z,18.48
2023-03-02T21:27:02.603Z,22.20
2023-03-02T21:30:06.384Z,23.15
2023-03-02T21:33:08.626Z,20.55
2023-03-02T21:36:23.383Z,25.37
2023-03-02T21:39:25.901Z,14.87
2023-03-02T21:42:28.239Z,16.73
2023-03-02T21:45:30.434Z,23.85
2023-03-02T21:48:32.868Z,14.70
2023-03-02T21:51:35.183Z,16.00
2023-03-02T21:54:37.381Z,19.08
2023-03-02T21:57:40.408Z,21.52
2023-03-02T22:00:42.693Z,19.33
2023-03-02T22:03:44.940Z,16.08
2023-03-02T22:06:47.154Z,13.95
2023-03-02T22:09:49.397Z,13.77
2023-03-02T22:12:56.699Z,13.60
2023-03-02T22:16:12.375Z,23.33
2023-03-02T22:19:32.424Z,26.08
2023-03-02T22:22:34.603Z,20.85
2023-03-02T22:25:36.863Z,25.35
2023-03-02T22:28:41.021Z,27.75
2023-03-02T22:31:47.484Z,24.45
2023-03-02T22:34:52.694Z,29.55
2023-03-02T22:38:00.451Z,22.23
2023-03-02T22:41:02.662Z,18.25
2023-03-02T22:44:11.109Z,18.30
2023-03-02T22:47:18.886Z,19.33
2023-03-02T22:50:23.737Z,20.52
2023-03-02T22:53:30.531Z,22.73
2023-03-02T22:56:43.823Z,19.98
2023-03-02T22:59:46.151Z,19.42
2023-03-02T23:02:48.362Z,15.55
2023-03-02T23:05:52.865Z,22.42
2023-03-02T23:09:00.195Z,18.17
2023-03-02T23:12:10.071Z,27.75
2023-03-02T23:15:18.623Z,14.38
2023-03-02T23:18:26.312Z,14.82
2023-03-02T23:21:40.099Z,18.33
2023-03-02T23:24:42.450Z,14.43
2023-03-02T23:27:44.598Z,21.75
2023-03-02T23:30:47.632Z,13.07
2023-03-02T23:33:49.867Z,13.73
2023-03-02T23:36:52.039Z,13.35
2023-03-02T23:39:54.207Z,8.13
2023-03-02T23:42:56.466Z,15.93
2023-03-02T23:45:58.685Z,11.50
2023-03-02T23:49:01.275Z,23.85
2023-03-02T23:52:03.648Z,28.33
2023-03-02T23:55:07.627Z,24.77
2023-03-02T23:58:09.784Z,27.58
